Harbinger, NC

6:26 PM EDT on September 19, 2014 (GMT -0400)
Elizabeth City Cgas-Regional | Change Station
CLOSE
Current Station
Airport
Location: Elizabeth City,
Elevation: 13 ft
Nearby Weather Stations

Elev 13 ft 36.26 °N, 76.18 °W | Updated 32 minutes ago

Clear
Clear
72 °F
Feels Like 72 °F
N
12
Wind Variable Wind from ENE

Today
High -- | Low -- °F
--% Chance of Precip.
Yesterday
High -- | Low -- °F
Precip. -- in
6:48 AM 7:04 PM
Waning Crescent, 16% visible
Pressure 30.22 in
Visibility 10.0 miles
Clouds Clear
Dew Point 57 °F
Humidity 59%
Rainfall 0.00 in
Snow Depth Not available.
UV 1 out of 12
Pollen 5.50 out of 12
Air Quality Not available.
Flu Activity Not available.
METAR KECG 192154Z 07010KT 10SM CLR 22/14 A3022 RMK AO2 SLP234 T02220139

More Conditions Fewer Conditions

Pressure 30.22 in
Visibility 10.0 miles
Clouds Clear
Dew Point 57 °F
Humidity 59%
Rainfall 0.00 in
Snow Depth Not available.
UV 1 out of 12
Pollen 5.50 out of 12
Air Quality Not available.
Flu Activity Not available.
METAR KECG 192154Z 07010KT 10SM CLR 22/14 A3022 RMK AO2 SLP234 T02220139

More Conditions Fewer Conditions

10-Day Weather Forecast

Almanac

Astronomy

Sep. 19, 2014 Rise Set
Actual Time 6:48 AM EDT 7:04 PM EDT
Civil Twilight 6:23 AM EDT 7:30 PM EDT
Nautical Twilight 5:53 AM EDT 8:00 PM EDT
Astronomical Twilight 5:22 AM EDT 8:30 PM EDT
Moon 2:38 AM EDT 4:26 PM EDT
Length of Visible Light 13h 07m
Length of Day
12h 15m
Tomorrow will be 2m 16s shorter.
Waning Crescent, 16% of the Moon is Illuminated
Today
Waning Crescent
Sep 24
New
Oct 1
First Quarter
Oct 8
Full
Oct 15
Last Quarter

Today's Extremes

State Highs State Lows

Community

WunderPhotos

Upload Photos

1,754,721 photos uploaded!

WunderBlogs® & News

Nearby

Snow Depth

Station Depth Elevation
No new snow has been reported.

Earthquake Activity

City Distance Mag. Time & Date
No recent earthquake activity has been reported nearby.
Minimum magnitude displayed is 2.5.

Coastal Water Temperatures

Place Temperature
Oregon Inlet Marina, NC 73.9 °F
Duck Pier, NC 75.0 °F
Hatteras, NC 75.0 °F
Money Point, VA 79.0 °F
Sewells Point, VA 75.9 °F
Chesapeake Bay Bridge Tunnel, VA 75.9 °F

Nearby Weather Stations